Alpha, Iowa
Current Conditions -  °F | °C
As of 8:35 AM on Friday 28 Nov 2014 (Local Time) from KDEH Reporting Station
Clear Clear  
Wind Chill: -16°   Ceiling: Unl
Heat Index: -9°   Visibility: 10mi
Dew Point: -13°   Wind: 12mph
Humidity: 73%   Direction: 150°SSE
Pressure: 30.01"   Gusts: 17mph
Location:  43.0382°N, 92.0219°W
Report Text: KDEH 281435Z AUTO 15010G15KT 10SM CLR M09/M13 A3001 RMK AO2
Loading
Personal Weather Stations






























Interactive Weather Map New forecast layout! Learn more

10-Day Weather Forecast

Advertisements
Track Severe Weather on mobile